Time;durP1;ratioP1;P1;durP2;ratioP2;P2;SDS_P1;SDS_P2;PMS_P1;PMS_P2;Temp;Humidity;BMP_temperature;BMP_pressure;BME280_temperature;BME280_humidity;BME280_pressure;Samples;Min_cycle;Max_cycle;Signal;HPM_P1;HPM_P2
2022/06/29 00:00:07;;;;;;;7.57;6.88;;;;;;;18.72;77.47;95239.22;5095880;28;20219;-72
2022/06/29 00:02:35;;;;;;;7.95;7.20;;;;;;;18.67;77.33;95236.00;5095743;28;20215;-72
2022/06/29 00:05:02;;;;;;;7.03;6.38;;;;;;;18.61;76.66;95234.81;5095749;28;20203;-72
2022/06/29 00:07:29;;;;;;;6.88;6.28;;;;;;;18.55;76.84;95242.78;5095579;28;20212;-72
2022/06/29 00:09:56;;;;;;;7.90;7.03;;;;;;;18.54;77.03;95249.56;5096179;28;20188;-72
2022/06/29 00:12:23;;;;;;;7.30;6.57;;;;;;;18.54;77.33;95244.00;5095573;28;20204;-72
2022/06/29 00:14:50;;;;;;;7.20;6.47;;;;;;;18.53;77.40;95256.38;5096419;28;20184;-72
2022/06/29 00:17:17;;;;;;;7.97;7.38;;;;;;;18.52;77.55;95252.78;5096111;28;20176;-72
2022/06/29 00:19:45;;;;;;;8.32;7.25;;;;;;;18.49;77.69;95244.41;5096502;28;20185;-72
2022/06/29 00:22:11;;;;;;;8.68;7.53;;;;;;;18.49;77.79;95252.78;5095385;28;20196;-72
2022/06/29 00:24:38;;;;;;;7.80;7.10;;;;;;;18.49;77.80;95252.78;5095789;28;20196;-72
2022/06/29 00:29:48;;;;;;;6.85;6.25;;;;;;;18.49;77.92;95255.56;5112824;27;20927;-71
2022/06/29 00:32:15;;;;;;;7.50;6.40;;;;;;;18.50;77.98;95255.16;5112785;28;20183;-71
2022/06/29 00:34:42;;;;;;;6.47;5.88;;;;;;;18.49;77.52;95250.00;5095246;28;20191;-71
2022/06/29 00:37:09;;;;;;;10.18;6.72;;;;;;;18.50;77.37;95243.19;5095267;28;20211;-71
2022/06/29 00:39:36;;;;;;;7.00;6.40;;;;;;;18.55;76.81;95240.00;5094726;28;20219;-70
2022/06/29 00:42:03;;;;;;;6.95;6.45;;;;;;;18.59;77.63;95226.84;5095611;28;20207;-70
2022/06/29 00:44:30;;;;;;;7.60;6.82;;;;;;;18.60;78.13;95228.44;5129021;28;20203;-70
2022/06/29 00:46:59;;;;;;;7.22;6.60;;;;;;;18.63;78.00;95230.44;5095175;28;20256;-70
2022/06/29 00:49:28;;;;;;;7.85;7.20;;;;;;;18.60;77.31;95236.81;5094841;28;20261;-70
2022/06/29 00:52:00;;;;;;;6.90;6.35;;;;;;;18.60;77.80;95231.22;5112441;28;20187;-70
2022/06/29 00:54:27;;;;;;;6.88;6.38;;;;;;;18.61;78.23;95220.84;5094630;28;20205;-70
2022/06/29 00:56:53;;;;;;;6.95;6.30;;;;;;;18.62;78.28;95228.81;5112586;28;20184;-70
2022/06/29 00:59:23;;;;;;;6.43;5.85;;;;;;;18.61;78.08;95220.84;5094593;28;20249;-70
2022/06/29 01:01:50;;;;;;;7.10;6.40;;;;;;;18.62;78.05;95222.44;5112521;28;20180;-71
2022/06/29 01:04:19;;;;;;;7.50;6.80;;;;;;;18.53;77.26;95223.66;5094584;28;20203;-71
2022/06/29 01:06:45;;;;;;;7.63;6.90;;;;;;;18.44;77.34;95220.44;5094638;28;20196;-71
2022/06/29 01:09:12;;;;;;;8.23;7.45;;;;;;;18.36;77.26;95218.06;5112352;28;20215;-71
2022/06/29 01:11:39;;;;;;;7.65;6.95;;;;;;;18.33;77.21;95214.06;5111937;28;20188;-71
2022/06/29 01:14:06;;;;;;;7.68;6.97;;;;;;;18.29;77.48;95222.44;5112196;28;20185;-71
2022/06/29 01:16:33;;;;;;;7.80;7.10;;;;;;;18.24;77.61;95220.06;5094291;28;20196;-71
2022/06/29 01:18:59;;;;;;;7.90;7.10;;;;;;;18.22;77.58;95204.91;5094198;28;20203;-71
2022/06/29 01:21:29;;;;;;;7.95;7.25;;;;;;;18.19;77.84;95206.53;5128303;28;20188;-71
2022/06/29 01:23:57;;;;;;;6.78;6.25;;;;;;;18.16;77.79;95209.31;5128006;28;20214;-71
2022/06/29 01:26:23;;;;;;;7.93;6.75;;;;;;;18.17;77.93;95210.91;5094156;28;20208;-71
2022/06/29 01:28:50;;;;;;;7.75;7.07;;;;;;;18.19;78.42;95206.53;5111333;28;20246;-71
2022/06/29 01:31:18;;;;;;;7.13;6.55;;;;;;;18.18;77.77;95204.09;5094287;28;20208;-71
2022/06/29 01:33:46;;;;;;;7.10;6.50;;;;;;;18.20;78.14;95210.09;5093952;28;20245;-71
2022/06/29 01:36:13;;;;;;;7.13;6.55;;;;;;;18.23;78.12;95212.91;5111889;28;20188;-71
2022/06/29 01:38:40;;;;;;;7.40;6.75;;;;;;;18.19;77.79;95209.31;5128051;28;20524;-72
2022/06/29 01:41:10;;;;;;;7.38;6.70;;;;;;;18.13;77.63;95212.91;5098358;28;20192;-72
2022/06/29 01:43:37;;;;;;;7.13;6.53;;;;;;;18.08;78.16;95216.84;5080297;28;20199;-72
2022/06/29 01:46:04;;;;;;;8.23;7.43;;;;;;;18.07;78.03;95223.66;5080334;28;20263;-72
2022/06/29 01:48:31;;;;;;;7.22;6.53;;;;;;;18.10;78.53;95213.69;5113997;28;20216;-72
2022/06/29 01:50:57;;;;;;;7.88;7.07;;;;;;;18.16;78.90;95212.09;5080142;28;20196;-71
2022/06/29 01:53:24;;;;;;;7.85;6.32;;;;;;;18.13;77.89;95210.09;5080190;28;20600;-71
2022/06/29 01:55:51;;;;;;;10.45;6.80;;;;;;;18.06;77.52;95212.88;5113704;28;20200;-71
2022/06/29 01:58:19;;;;;;;9.40;6.65;;;;;;;17.98;77.79;95204.50;5097929;28;20185;-71
2022/06/29 02:00:46;;;;;;;8.63;7.57;;;;;;;17.95;77.84;95202.50;5097782;28;20188;-71
2022/06/29 02:03:13;;;;;;;8.52;6.95;;;;;;;17.95;78.33;95202.50;5113643;28;20207;-71
2022/06/29 02:05:39;;;;;;;6.75;6.25;;;;;;;18.00;77.91;95204.91;5097351;28;20199;-71
2022/06/29 02:08:07;;;;;;;7.50;6.80;;;;;;;18.02;77.93;95204.50;5080403;28;20185;-71
2022/06/29 02:10:34;;;;;;;7.72;7.00;;;;;;;18.06;78.09;95201.72;5079405;28;20540;-71
2022/06/29 02:13:01;;;;;;;7.28;6.68;;;;;;;18.04;78.10;95190.94;5097678;28;20188;-71
2022/06/29 02:15:29;;;;;;;7.78;7.07;;;;;;;18.00;78.17;95188.16;5079723;28;20231;-71
2022/06/29 02:17:56;;;;;;;7.57;6.88;;;;;;;17.99;78.04;95186.56;5080079;28;20215;-71
2022/06/29 02:20:22;;;;;;;6.93;6.32;;;;;;;17.98;78.05;95192.56;5113913;28;20192;-71
2022/06/29 02:22:49;;;;;;;6.80;6.30;;;;;;;17.96;77.77;95186.56;5079466;28;20204;-71
2022/06/29 02:25:16;;;;;;;7.28;6.78;;;;;;;17.92;77.68;95192.13;5097023;28;20579;-71
2022/06/29 02:27:46;;;;;;;7.43;6.82;;;;;;;17.88;77.46;95190.56;5097034;28;20258;-71
2022/06/29 02:30:13;;;;;;;7.00;6.40;;;;;;;17.89;77.87;95190.13;5113318;28;20228;-71
2022/06/29 02:35:26;;;;;;;7.60;6.60;;;;;;;17.96;77.39;95178.19;5112896;28;20203;-71
2022/06/29 02:37:52;;;;;;;6.57;5.97;;;;;;;18.00;77.53;95179.78;5112829;28;20196;-71
2022/06/29 02:40:19;;;;;;;8.00;6.03;;;;;;;18.05;77.71;95181.41;5079678;28;20201;-72
2022/06/29 02:42:46;;;;;;;7.45;6.55;;;;;;;18.01;77.36;95181.41;5079256;28;20204;-72
2022/06/29 02:45:13;;;;;;;7.28;6.68;;;;;;;17.91;76.81;95176.59;5079277;28;20209;-72
2022/06/29 02:47:41;;;;;;;8.55;7.00;;;;;;;17.84;76.92;95178.59;5113009;28;20191;-72
2022/06/29 02:50:08;;;;;;;7.72;6.93;;;;;;;17.80;77.59;95175.81;5078839;28;20225;-72
2022/06/29 02:52:35;;;;;;;7.55;6.93;;;;;;;17.80;77.73;95175.81;5078426;28;20540;-72
2022/06/29 02:55:01;;;;;;;7.25;6.35;;;;;;;17.83;77.85;95174.19;5096521;28;20203;-72
2022/06/29 02:57:28;;;;;;;7.57;6.88;;;;;;;17.87;78.37;95175.00;5078476;28;20200;-71
2022/06/29 02:59:55;;;;;;;8.00;7.40;;;;;;;17.87;78.22;95166.66;5096827;28;20192;-71
2022/06/29 03:02:22;;;;;;;7.68;6.95;;;;;;;17.87;78.56;95173.00;5112812;28;20203;-71
2022/06/29 03:04:50;;;;;;;7.88;7.07;;;;;;;17.84;78.19;95170.22;5096694;28;20195;-71
2022/06/29 03:07:17;;;;;;;7.43;6.90;;;;;;;17.81;78.20;95171.81;5078624;28;20196;-71
2022/06/29 03:09:44;;;;;;;8.07;7.38;;;;;;;17.79;78.54;95168.59;5078226;28;20223;-71
2022/06/29 03:12:10;;;;;;;9.00;8.07;;;;;;;17.75;78.52;95163.03;5112482;28;20261;-71
2022/06/29 03:14:38;;;;;;;9.48;8.50;;;;;;;17.75;78.74;95168.59;5096340;28;20180;-71
2022/06/29 03:17:04;;;;;;;8.77;7.90;;;;;;;17.79;79.25;95169.44;5078742;28;20250;-71
2022/06/29 03:19:31;;;;;;;9.02;7.57;;;;;;;17.80;79.00;95173.00;5112305;28;20192;-69
2022/06/29 03:21:59;;;;;;;8.82;8.05;;;;;;;17.84;78.66;95173.00;5112625;28;20195;-70
2022/06/29 03:24:26;;;;;;;8.65;7.95;;;;;;;17.78;78.67;95176.19;5078401;28;20624;-71
2022/06/29 03:26:53;;;;;;;9.18;8.38;;;;;;;17.77;78.41;95171.00;5096137;28;20199;-70
2022/06/29 03:29:20;;;;;;;10.38;9.55;;;;;;;17.74;78.16;95169.78;5077635;28;20232;-70
2022/06/29 03:31:46;;;;;;;10.93;9.85;;;;;;;17.76;78.18;95177.78;5078481;28;20258;-70
2022/06/29 03:34:14;;;;;;;10.98;9.98;;;;;;;17.76;78.41;95172.22;5112384;28;20184;-70
2022/06/29 03:36:42;;;;;;;9.98;9.18;;;;;;;17.72;77.99;95174.13;5078038;28;20227;-70
2022/06/29 03:39:10;;;;;;;11.35;9.23;;;;;;;17.69;78.15;95178.53;5095972;28;20188;-70
2022/06/29 03:41:37;;;;;;;9.52;8.65;;;;;;;17.65;78.43;95188.91;5077989;28;20207;-70
2022/06/29 03:44:05;;;;;;;10.02;9.00;;;;;;;17.60;77.72;95175.31;5095880;28;20207;-70
2022/06/29 03:46:31;;;;;;;10.18;9.15;;;;;;;17.60;78.27;95174.53;5095945;28;20253;-70
2022/06/29 03:48:58;;;;;;;10.13;8.93;;;;;;;17.60;78.23;95178.13;5078041;28;20220;-70
2022/06/29 03:51:25;;;;;;;10.35;9.30;;;;;;;17.64;77.88;95170.53;5095755;28;20177;-70
2022/06/29 03:53:52;;;;;;;10.70;9.15;;;;;;;17.66;78.35;95164.59;5112065;28;20192;-70
2022/06/29 03:56:20;;;;;;;13.07;10.77;;;;;;;17.69;78.32;95163.81;5111475;28;20200;-71
2022/06/29 03:58:47;;;;;;;10.90;9.90;;;;;;;17.66;78.72;95159.81;5095683;28;20184;-70
2022/06/29 04:01:14;;;;;;;10.48;9.60;;;;;;;17.62;78.59;95167.38;5077874;28;20200;-70
2022/06/29 04:03:41;;;;;;;10.27;8.95;;;;;;;17.62;78.41;95147.06;5095006;28;20196;-70
2022/06/29 04:06:10;;;;;;;9.63;8.75;;;;;;;17.64;78.86;95150.22;5077498;28;20212;-70
2022/06/29 04:08:36;;;;;;;11.07;9.43;;;;;;;17.66;79.18;95151.44;5095667;28;20184;-72
2022/06/29 04:11:48;;;;;;;10.40;9.40;;;;;;;17.66;79.28;95151.44;5077778;28;20204;-71
2022/06/29 04:13:52;;;;;;;11.02;9.93;;;;;;;17.64;79.24;95150.22;5111131;28;20627;-71
2022/06/29 04:16:19;;;;;;;11.77;10.68;;;;;;;17.60;78.69;95144.66;5078102;28;20212;-71
2022/06/29 04:18:45;;;;;;;10.32;9.38;;;;;;;17.61;79.08;95148.22;5111992;28;20203;-71
2022/06/29 04:21:12;;;;;;;10.73;9.63;;;;;;;17.59;79.06;95131.91;5077641;28;20204;-71
2022/06/29 04:23:39;;;;;;;11.60;10.43;;;;;;;17.58;79.00;95138.69;5078258;28;20196;-70
2022/06/29 04:26:06;;;;;;;10.55;9.57;;;;;;;17.51;79.51;95144.25;5077451;28;20185;-69
2022/06/29 04:28:33;;;;;;;10.90;9.80;;;;;;;17.54;79.88;95157.41;5094884;28;20236;-69
2022/06/29 04:31:02;;;;;;;11.85;10.73;;;;;;;17.55;80.16;95153.41;5077459;28;20220;-69
2022/06/29 04:33:29;;;;;;;10.88;9.77;;;;;;;17.61;80.17;95151.84;5077450;28;20279;-69
2022/06/29 04:35:56;;;;;;;11.13;10.05;;;;;;;17.70;79.63;95152.25;5077826;28;20575;-68
2022/06/29 04:38:22;;;;;;;11.57;10.35;;;;;;;17.76;79.75;95147.91;5077816;28;20196;-69
2022/06/29 04:40:49;;;;;;;11.63;10.52;;;;;;;17.76;79.63;95142.31;5111183;28;20197;-68
2022/06/29 04:43:16;;;;;;;11.23;10.23;;;;;;;17.76;79.70;95145.09;5111435;28;20200;-68
2022/06/29 04:48:28;;;;;;;12.07;10.63;;;;;;;17.87;79.77;95141.53;5077203;28;20632;-69
2022/06/29 04:50:55;;;;;;;11.63;10.50;;;;;;;17.90;79.56;95147.13;5077434;28;20216;-69
2022/06/29 04:53:22;;;;;;;11.68;10.57;;;;;;;17.93;79.66;95148.28;5076944;28;20215;-69
2022/06/29 04:55:48;;;;;;;12.30;11.07;;;;;;;17.93;79.66;95153.88;5077494;28;20196;-69
2022/06/29 04:58:15;;;;;;;13.82;11.15;;;;;;;17.93;79.78;95159.44;5111357;28;20204;-70
2022/06/29 05:00:42;;;;;;;11.77;10.70;;;;;;;17.96;80.13;95167.03;5077364;28;20192;-68
2022/06/29 05:03:09;;;;;;;12.55;11.38;;;;;;;17.99;79.79;95167.03;5077353;28;20653;-72
2022/06/29 05:05:37;;;;;;;11.90;10.70;;;;;;;18.04;79.79;95169.41;5077390;28;20201;-72
2022/06/29 05:08:04;;;;;;;12.10;10.73;;;;;;;18.10;79.66;95174.63;5077105;28;20224;-73
2022/06/29 05:10:31;;;;;;;12.05;10.90;;;;;;;18.08;79.19;95168.63;5077154;28;20223;-70
2022/06/29 05:12:58;;;;;;;13.52;11.63;;;;;;;18.04;79.23;95160.25;5111388;28;20192;-72
2022/06/29 05:15:25;;;;;;;12.98;11.77;;;;;;;18.03;79.54;95161.44;5079088;28;20539;-73
2022/06/29 05:17:51;;;;;;;13.15;11.85;;;;;;;18.05;79.57;95164.66;5081072;28;20205;-73
2022/06/29 05:20:20;;;;;;;13.43;12.32;;;;;;;18.09;79.72;95171.03;5081105;28;20207;-72
2022/06/29 05:22:48;;;;;;;12.20;11.10;;;;;;;18.07;79.12;95169.81;5081235;28;20204;-73
2022/06/29 05:25:15;;;;;;;12.32;11.32;;;;;;;18.03;79.22;95169.81;5114960;28;20220;-71
2022/06/29 05:27:42;;;;;;;12.07;10.85;;;;;;;18.02;79.19;95160.66;5080462;28;20556;-73
2022/06/29 05:30:10;;;;;;;12.55;11.50;;;;;;;18.03;80.06;95162.25;5080870;28;20223;-73
2022/06/29 05:32:36;;;;;;;11.85;10.70;;;;;;;18.04;79.36;95169.41;5098681;28;20173;-73
2022/06/29 05:35:04;;;;;;;13.15;11.77;;;;;;;17.98;79.12;95167.44;5081025;28;20207;-73
2022/06/29 05:37:31;;;;;;;11.25;10.25;;;;;;;17.95;79.76;95155.06;5080497;28;20193;-72
2022/06/29 05:39:59;;;;;;;12.57;11.35;;;;;;;17.97;80.32;95165.81;5081298;28;20208;-71
2022/06/29 05:42:26;;;;;;;11.30;10.30;;;;;;;18.01;80.20;95158.25;5080833;28;20184;-73
2022/06/29 05:44:53;;;;;;;11.48;10.48;;;;;;;18.09;80.02;95162.66;5114941;28;20188;-72
2022/06/29 05:47:20;;;;;;;11.93;10.75;;;;;;;18.15;80.45;95171.41;5080790;28;20201;-72
2022/06/29 05:49:47;;;;;;;12.05;10.93;;;;;;;18.20;80.48;95169.03;5080708;28;20694;-72
2022/06/29 05:52:15;;;;;;;11.93;10.73;;;;;;;18.21;80.78;95173.41;5081322;28;20196;-72
2022/06/29 05:54:41;;;;;;;11.65;10.65;;;;;;;18.23;80.56;95187.78;5098025;28;20542;-72
2022/06/29 05:57:10;;;;;;;12.55;11.35;;;;;;;18.27;79.80;95188.56;5080383;28;20193;-71
2022/06/29 05:59:36;;;;;;;11.32;10.23;;;;;;;18.36;78.94;95184.56;5080381;28;20200;-73
2022/06/29 06:02:03;;;;;;;12.48;11.15;;;;;;;18.39;79.40;95183.75;5114790;28;20207;-68
2022/06/29 06:04:31;;;;;;;10.63;9.75;;;;;;;18.40;79.27;95182.56;5080076;28;20208;-68
2022/06/29 06:06:58;;;;;;;10.57;9.68;;;;;;;18.42;78.11;95183.75;5114330;28;20253;-69
2022/06/29 06:09:27;;;;;;;14.07;12.68;;;;;;;18.46;78.03;95184.56;5079992;28;20204;-69
2022/06/29 06:11:54;;;;;;;14.23;12.82;;;;;;;18.53;77.64;95187.34;5080552;28;20200;-69
2022/06/29 06:14:22;;;;;;;12.48;11.27;;;;;;;18.57;78.73;95173.38;5080598;28;20262;-69
2022/06/29 06:16:49;;;;;;;12.98;11.68;;;;;;;18.58;79.18;95174.94;5080196;28;20207;-69
2022/06/29 06:19:16;;;;;;;13.80;12.60;;;;;;;18.64;79.54;95181.72;5080033;28;20208;-71
2022/06/29 06:21:43;;;;;;;12.95;11.63;;;;;;;18.69;79.77;95170.13;5080108;28;20237;-69
2022/06/29 06:24:10;;;;;;;12.10;10.85;;;;;;;18.75;79.81;95167.78;5097382;28;20241;-69
2022/06/29 06:26:37;;;;;;;12.10;11.07;;;;;;;18.79;79.32;95162.97;5097197;28;20207;-69
2022/06/29 06:29:03;;;;;;;11.52;10.50;;;;;;;18.88;78.76;95166.13;5096929;28;20660;-68
2022/06/29 06:31:31;;;;;;;11.40;10.10;;;;;;;18.94;79.72;95163.72;5113531;28;20216;-68
2022/06/29 06:33:58;;;;;;;11.43;10.32;;;;;;;18.93;79.26;95162.13;5097955;28;20188;-68
2022/06/29 06:36:25;;;;;;;10.85;9.75;;;;;;;18.96;79.38;95155.72;5097428;28;20192;-68
2022/06/29 06:38:52;;;;;;;10.38;9.30;;;;;;;19.02;77.98;95170.84;5097041;28;20490;-69
2022/06/29 06:41:25;;;;;;;9.13;8.43;;;;;;;19.09;76.62;95161.66;5079554;28;20192;-68
2022/06/29 06:43:53;;;;;;;9.05;8.35;;;;;;;19.12;76.04;95158.84;5079477;28;20200;-68
2022/06/29 06:46:20;;;;;;;9.15;8.35;;;;;;;19.17;76.14;95150.06;5113405;28;20196;-68
2022/06/29 06:48:49;;;;;;;9.52;8.50;;;;;;;19.20;75.90;95152.00;5113086;28;20199;-68
2022/06/29 06:51:16;;;;;;;10.88;9.93;;;;;;;19.23;75.92;95158.78;5113145;28;20208;-68
2022/06/29 06:53:43;;;;;;;10.77;9.82;;;;;;;19.29;76.15;95156.38;5078850;28;20203;-69
2022/06/29 06:56:10;;;;;;;10.02;8.95;;;;;;;19.37;75.74;95143.94;5079744;28;20620;-68
2022/06/29 06:58:38;;;;;;;10.63;9.63;;;;;;;19.47;75.90;95145.91;5113340;28;20200;-68
2022/06/29 07:01:05;;;;;;;9.43;8.50;;;;;;;19.57;75.45;95142.25;5079137;28;20205;-69
2022/06/29 07:03:32;;;;;;;9.75;8.63;;;;;;;19.66;74.96;95141.81;5079114;28;20181;-69
2022/06/29 07:06:01;;;;;;;9.23;8.43;;;;;;;19.79;74.29;95142.91;5113257;28;20192;-70
2022/06/29 07:08:27;;;;;;;8.52;7.88;;;;;;;19.86;74.00;95137.28;5096908;28;20285;-68
2022/06/29 07:10:55;;;;;;;7.03;6.43;;;;;;;19.90;72.52;95149.22;5078957;28;20216;-68
2022/06/29 07:13:21;;;;;;;9.60;8.70;;;;;;;19.92;72.29;95134.81;5078766;28;20295;-68
2022/06/29 07:15:48;;;;;;;7.60;6.95;;;;;;;19.94;72.59;95140.81;5112773;28;20192;-68
2022/06/29 07:18:15;;;;;;;7.60;6.80;;;;;;;20.00;72.03;95141.16;5079065;28;20204;-68
2022/06/29 07:20:42;;;;;;;6.97;6.45;;;;;;;20.05;71.60;95141.50;5096344;28;20196;-68
2022/06/29 07:23:10;;;;;;;7.60;7.00;;;;;;;20.12;71.66;95133.06;5078785;28;20207;-68
2022/06/29 07:25:37;;;;;;;8.70;8.00;;;;;;;20.19;71.15;95137.81;5112205;28;20200;-67
2022/06/29 07:28:04;;;;;;;8.32;7.53;;;;;;;20.22;71.01;95136.94;5112009;28;20240;-68
2022/06/29 07:30:30;;;;;;;8.00;7.28;;;;;;;20.22;70.80;95141.75;5078821;28;20215;-69
2022/06/29 07:32:57;;;;;;;7.90;7.22;;;;;;;20.24;70.70;95137.34;5096093;28;20191;-68
2022/06/29 07:35:24;;;;;;;8.35;7.57;;;;;;;20.27;70.86;95135.72;5096314;28;20189;-69
2022/06/29 07:37:51;;;;;;;8.55;7.82;;;;;;;20.29;69.83;95130.50;5095935;28;20188;-67
2022/06/29 07:40:20;;;;;;;8.85;8.15;;;;;;;20.33;69.41;95134.84;5096012;28;20196;-67
2022/06/29 07:42:46;;;;;;;7.53;6.93;;;;;;;20.36;68.69;95125.63;5078216;28;20197;-67
2022/06/29 07:45:13;;;;;;;8.25;7.55;;;;;;;20.37;68.86;95121.63;5077874;28;20547;-71
2022/06/29 07:47:41;;;;;;;7.40;6.80;;;;;;;20.48;69.47;95124.31;5111869;28;20200;-67
2022/06/29 07:50:10;;;;;;;7.25;6.65;;;;;;;20.55;68.40;95126.25;5096071;28;20212;-71
2022/06/29 07:52:37;;;;;;;7.47;6.82;;;;;;;20.58;67.87;95122.63;5078164;28;20231;-72
2022/06/29 07:55:05;;;;;;;8.48;7.68;;;;;;;20.66;68.93;95130.56;5095623;28;20197;-71
2022/06/29 07:57:33;;;;;;;7.05;6.45;;;;;;;20.78;68.83;95128.44;5078251;28;20188;-71
2022/06/29 07:59:59;;;;;;;7.35;6.60;;;;;;;20.85;68.16;95120.75;5078113;28;20204;-71
2022/06/29 08:02:26;;;;;;;6.50;5.97;;;;;;;20.93;67.56;95127.06;5077739;28;20195;-72
2022/06/29 08:04:53;;;;;;;6.43;5.80;;;;;;;21.00;67.28;95120.56;5078215;28;20204;-71
2022/06/29 08:07:20;;;;;;;6.47;5.88;;;;;;;21.02;66.91;95113.31;5111761;28;20207;-71
2022/06/29 08:09:46;;;;;;;5.93;5.53;;;;;;;21.09;66.54;95118.81;5077957;28;20192;-71
2022/06/29 08:12:15;;;;;;;6.93;5.60;;;;;;;21.19;66.18;95121.94;5078137;28;20230;-71
2022/06/29 08:14:43;;;;;;;6.70;5.82;;;;;;;21.25;65.37;95123.84;5077606;28;20600;-71
2022/06/29 08:17:10;;;;;;;5.95;5.43;;;;;;;21.28;65.06;95120.22;5111524;28;20231;-72
2022/06/29 08:19:37;;;;;;;6.18;5.57;;;;;;;21.32;65.28;95118.13;5077585;28;20289;-72
2022/06/29 08:22:03;;;;;;;6.28;5.78;;;;;;;21.46;64.66;95117.19;5078002;28;20211;-72
2022/06/29 08:24:30;;;;;;;6.50;5.47;;;;;;;21.57;65.05;95123.44;5077984;28;20518;-72
2022/06/29 08:26:57;;;;;;;6.10;5.50;;;;;;;21.65;64.66;95132.53;5077902;28;20256;-73
2022/06/29 08:29:24;;;;;;;9.02;5.82;;;;;;;21.78;64.88;95129.94;5107592;28;20247;-72
2022/06/29 08:31:52;;;;;;;6.03;5.43;;;;;;;21.81;64.30;95129.09;5074172;28;20224;-74
2022/06/29 08:34:18;;;;;;;6.10;5.60;;;;;;;21.87;64.04;95127.41;5074774;28;20193;-70
2022/06/29 08:36:45;;;;;;;5.68;5.28;;;;;;;21.96;63.84;95118.44;5074494;28;20208;-70
2022/06/29 08:39:12;;;;;;;6.90;6.30;;;;;;;22.07;62.98;95122.63;5074131;28;20205;-70
2022/06/29 08:41:39;;;;;;;7.13;6.53;;;;;;;22.17;63.95;95118.09;5073996;28;20246;-74
2022/06/29 08:44:06;;;;;;;6.82;6.18;;;;;;;22.25;63.45;95127.22;5075178;28;20181;-74
2022/06/29 08:46:33;;;;;;;6.68;6.07;;;;;;;22.26;63.33;95118.38;5075480;28;20258;-74
2022/06/29 08:49:03;;;;;;;6.72;6.15;;;;;;;22.37;62.21;95120.16;5074043;28;20209;-74
2022/06/29 08:51:33;;;;;;;7.22;6.05;;;;;;;22.39;62.52;95124.16;5077785;28;20625;-74
2022/06/29 08:54:02;;;;;;;6.13;5.63;;;;;;;22.45;62.67;95121.66;5078709;28;20228;-74
2022/06/29 08:56:29;;;;;;;5.55;5.10;;;;;;;22.61;59.33;95112.53;5078658;28;20193;-70
2022/06/29 08:58:56;;;;;;;5.25;4.57;;;;;;;22.63;57.85;95112.91;5078891;28;20197;-70
2022/06/29 09:01:23;;;;;;;4.75;4.32;;;;;;;22.69;56.32;95108.34;5078901;28;20189;-71
2022/06/29 09:03:50;;;;;;;5.25;4.85;;;;;;;22.74;57.49;95113.47;5077812;28;20641;-71
2022/06/29 09:06:18;;;;;;;6.40;5.07;;;;;;;22.75;56.79;95107.41;5078150;28;20208;-71
2022/06/29 09:08:45;;;;;;;5.45;4.95;;;;;;;22.77;57.59;95110.59;5077695;28;20240;-73
2022/06/29 09:11:22;;;;;;;5.55;5.15;;;;;;;22.91;59.31;95103.09;5077611;28;20561;-72
2022/06/29 09:13:49;;;;;;;5.57;5.10;;;;;;;23.02;57.99;95095.25;5077791;28;20192;-73
2022/06/29 09:16:15;;;;;;;5.68;5.18;;;;;;;23.15;58.54;95107.44;5078091;28;20196;-75
2022/06/29 09:18:43;;;;;;;5.85;5.45;;;;;;;23.25;60.00;95108.47;5078554;28;20196;-66
2022/06/29 09:21:10;;;;;;;6.45;5.80;;;;;;;23.42;59.24;95106.47;5111648;28;20197;-67
2022/06/29 09:23:38;;;;;;;5.95;5.55;;;;;;;23.59;56.44;95102.47;5078454;28;20178;-68
2022/06/29 09:26:06;;;;;;;6.75;6.15;;;;;;;23.71;61.54;95104.66;5077626;28;20264;-73
2022/06/29 09:28:34;;;;;;;6.35;5.75;;;;;;;23.80;59.50;95100.44;5077450;28;20255;-68
2022/06/29 09:31:01;;;;;;;6.65;6.05;;;;;;;23.83;60.40;95091.13;5077540;28;20220;-68
2022/06/29 09:33:29;;;;;;;6.63;5.95;;;;;;;23.89;58.04;95090.13;5078105;28;20192;-68
2022/06/29 09:36:07;;;;;;;6.38;5.85;;;;;;;24.00;60.60;95099.13;5077486;28;20250;-68
2022/06/29 09:38:34;;;;;;;6.32;5.82;;;;;;;24.04;59.82;95093.41;5077070;28;20708;-68
2022/06/29 09:41:07;;;;;;;6.95;6.20;;;;;;;24.16;59.58;95098.34;5060451;28;20558;-68
2022/06/29 09:43:34;;;;;;;7.10;6.50;;;;;;;24.18;58.16;95093.06;5077050;28;20197;-68
2022/06/29 09:46:02;;;;;;;7.00;5.88;;;;;;;24.27;56.90;95093.22;5077071;28;20204;-68
2022/06/29 09:48:30;;;;;;;6.13;5.45;;;;;;;24.37;56.07;95082.91;5077095;28;20204;-68
2022/06/29 09:50:57;;;;;;;6.78;5.97;;;;;;;24.41;57.28;95092.09;5076854;28;20217;-68
2022/06/29 09:53:38;;;;;;;7.18;5.50;;;;;;;24.50;54.92;95092.22;5076646;28;20196;-68
2022/06/29 09:56:07;;;;;;;6.40;5.53;;;;;;;24.54;55.46;95088.53;5077262;28;20197;-68
2022/06/29 09:58:38;;;;;;;6.03;5.53;;;;;;;24.61;56.69;95082.69;5076673;28;20205;-68
2022/06/29 10:03:54;;;;;;;5.82;5.32;;;;;;;24.80;54.20;95076.16;5111027;28;20613;-68
2022/06/29 10:06:22;;;;;;;6.18;5.68;;;;;;;24.89;52.16;95073.44;5076460;28;20204;-68
2022/06/29 10:08:49;;;;;;;7.10;5.85;;;;;;;24.94;55.22;95075.72;5076455;28;20189;-68
2022/06/29 10:14:17;;;;;;;5.57;5.07;;;;;;;25.03;51.37;95074.28;5110447;28;20274;-68
2022/06/29 10:16:50;;;;;;;5.90;5.30;;;;;;;25.15;52.60;95057.41;5076898;28;20223;-68
2022/06/29 10:19:37;;;;;;;5.05;4.65;;;;;;;25.23;51.38;95069.28;5076417;28;20271;-68
2022/06/29 10:22:03;;;;;;;6.05;5.32;;;;;;;25.28;52.36;95070.78;5076658;28;20200;-68
2022/06/29 10:24:30;;;;;;;5.75;5.10;;;;;;;25.29;50.88;95067.50;5077402;28;20185;-68
2022/06/29 10:27:05;;;;;;;4.93;4.53;;;;;;;25.38;48.20;95064.81;5077254;28;20185;-68
2022/06/29 10:29:36;;;;;;;4.90;4.50;;;;;;;25.45;48.62;95072.25;5094880;28;20593;-68
2022/06/29 10:32:13;;;;;;;5.15;4.47;;;;;;;25.45;49.04;95064.59;5096993;28;20628;-68
2022/06/29 10:37:25;;;;;;;4.97;4.57;;;;;;;25.44;51.49;95062.19;5096932;28;20263;-68
2022/06/29 10:39:53;;;;;;;5.45;5.05;;;;;;;25.53;49.47;95065.16;5079894;28;20204;-68
2022/06/29 10:45:24;;;;;;;4.20;3.88;;;;;;;25.62;45.82;95056.78;5096808;28;20287;-68
2022/06/29 10:48:15;;;;;;;4.07;3.67;;;;;;;25.65;44.43;95049.44;5096764;28;20180;-68
2022/06/29 10:50:43;;;;;;;4.07;3.67;;;;;;;25.78;46.35;95055.09;5089668;28;20219;-68
2022/06/29 10:53:11;;;;;;;4.35;3.95;;;;;;;25.67;44.32;95052.59;5096857;28;20191;-68
2022/06/29 10:55:39;;;;;;;3.85;3.55;;;;;;;25.68;43.21;95049.34;5078987;28;20218;-68
2022/06/29 10:58:08;;;;;;;4.25;3.83;;;;;;;25.77;44.12;95056.34;5112839;28;20280;-68
2022/06/29 11:00:38;;;;;;;4.03;3.42;;;;;;;25.87;42.54;95043.94;5079407;28;20253;-68
2022/06/29 11:03:10;;;;;;;4.78;3.83;;;;;;;25.91;43.46;95039.75;5078724;28;20224;-68
2022/06/29 11:12:01;;;;;;;4.20;3.90;;;;;;;25.99;45.82;95039.50;5112687;28;20613;-68
2022/06/29 11:13:57;;;;;;;6.63;4.75;;;;;;;26.15;45.48;95040.16;5095815;28;20181;-68
2022/06/29 11:16:31;;;;;;;4.88;4.50;;;;;;;26.08;45.72;95034.75;5097720;28;20232;-68
2022/06/29 11:18:59;;;;;;;4.53;4.20;;;;;;;25.96;43.97;95023.47;5091941;28;20197;-69
2022/06/29 11:21:28;;;;;;;4.20;3.90;;;;;;;25.98;44.08;95023.81;5058458;28;20201;-68
2022/06/29 11:24:05;;;;;;;3.90;3.60;;;;;;;26.06;44.30;95025.94;5058949;28;20325;-68
2022/06/29 11:26:33;;;;;;;3.95;3.65;;;;;;;26.15;40.67;95014.72;5058699;28;20193;-72
2022/06/29 11:29:03;;;;;;;4.85;4.25;;;;;;;26.26;43.08;95010.75;5076152;28;20240;-71
2022/06/29 11:31:30;;;;;;;4.03;3.60;;;;;;;26.25;41.89;95017.63;5058786;28;20213;-72
2022/06/29 11:33:56;;;;;;;6.10;4.15;;;;;;;26.34;40.74;95009.25;5077546;28;20185;-72
2022/06/29 11:36:26;;;;;;;4.10;3.75;;;;;;;26.40;42.58;95002.56;5058492;28;20605;-71
2022/06/29 11:38:55;;;;;;;3.80;3.50;;;;;;;26.52;43.25;95005.81;5075661;28;20200;-72
2022/06/29 11:41:25;;;;;;;4.18;3.88;;;;;;;26.58;43.23;95001.94;5075870;28;20189;-71
2022/06/29 11:44:04;;;;;;;3.80;3.50;;;;;;;26.64;44.06;95002.91;5092498;28;20205;-70
2022/06/29 11:46:33;;;;;;;3.55;3.25;;;;;;;26.60;43.27;94990.94;5075821;28;20211;-74
2022/06/29 11:51:56;;;;;;;4.22;3.92;;;;;;;26.51;43.80;95002.19;5075541;28;20208;-72
2022/06/29 11:54:35;;;;;;;4.40;4.00;;;;;;;26.58;43.81;94989.81;5075865;28;20287;-70
2022/06/29 11:57:05;;;;;;;5.18;4.10;;;;;;;26.48;41.97;94996.69;5058630;28;20222;-71
2022/06/29 11:59:34;;;;;;;4.65;3.70;;;;;;;26.43;41.86;94992.34;5058233;28;20196;-72